METAR / TAF

Die METAR- und TAF-Liste ist aus technischen Gründen (Verfügbarkeit, Update-Zyklen) nicht für ein Meteo-Briefing gedacht. Benutzen Sie stattdessen skybriefing der Skyguide  oder das TAMSI (MeteoSchweiz-eigene Meteo Selfbriefing-Plattform für Firmen aus der Aviatik; Anfragen über das

Kontaktformular

METAR Schweiz

METAR     LSZH 162120Z 02005KT 340V040 7000 FEW018 BKN020 04/01
               Q1025 NOSIG=
METAR     LSZH 162150Z 02005KT 7000 SCT017 BKN020 04/00 Q1025 NOSIG=
METAR     LSGG 162120Z 02006KT 340V040 9999 SCT012 OVC015 06/04
               Q1024 NOSIG=
METAR     LSGG 162150Z 03006KT 9999 SCT013 OVC015 06/03 Q1024 NOSIG=
METAR     LFSB 162200Z 11005KT 9999 SCT023 04/01 Q1025 BECMG 3000
               BR=
METAR     LSZB 162120Z VRB02KT 9999 OVC017 05/01 Q1023 NOSIG=
METAR     LSZB 162150Z VRB03KT 9999 BKN016 05/01 Q1023 NOSIG=
METAR     LSZA 162120Z AUTO 36002KT 9999 BKN042 08/05 Q1028=
METAR     LSZA 162150Z AUTO VRB01KT 9999 OVC044 08/06 Q1028=
METAR     LSZG 162120Z AUTO 06010KT 9999 OVC021 05/02 Q1024=
METAR     LSZG 162150Z AUTO 05010KT 9999 OVC021 05/02 Q1024=
METAR     LSZR 162120Z AUTO 12002KT 9999 OVC020 04/02 Q1025=
METAR     LSZR 162150Z AUTO 08004KT 9999 OVC019 04/02 Q1025=
METAR     LSGS 162120Z AUTO VRB03KT 9999 SCT023 05/02 Q1024=
METAR     LSGS 162150Z AUTO 00000KT 9999 NCD 05/02 Q1024=
METAR     LSGC 162120Z AUTO VRB02KT CAVOK M01/M04 Q1021=
METAR     LSGC 162150Z AUTO 00000KT CAVOK M00/M04 Q1021=
METAR     LSZC 162120Z AUTO VRB04KT 9999 OVC018 06/02 Q1024=
METAR     LSZC 162150Z AUTO 20004KT 9999 OVC018 06/02 Q1024=
METAR RRA LSZL 162120Z AUTO 00000KT 8000NDV BKN046 08/06 Q1028 RMK=
METAR RRA LSZL 162150Z AUTO 00000KT 7000NDV BKN048 08/07 Q1028 RMK=
METAR     LSZS 162120Z AUTO 16004KT 9999 BKN025 00/M02 Q1024=
METAR     LSZS 162150Z AUTO 20004KT 9999 BKN026 00/M03 Q1024=
METAR RRA LSMA 162120Z AUTO 00000KT 9999NDV OVC020 06/03 Q1024 RMK=
METAR RRA LSMA 162150Z AUTO VRB01KT 9999NDV OVC021 06/03 Q1024 RMK=
METAR RRA LSMD 162120Z AUTO 04008KT 9999NDV OVC020 04/01 Q1025 RMK=
METAR RRA LSMD 162150Z AUTO 03006KT 360V060 9999NDV OVC018 04/01
               Q1025 RMK=
METAR RRA LSME 162120Z AUTO 02008KT 9999NDV OVC027 05/02 Q1024 RMK=
METAR RRA LSME 162150Z AUTO 03005KT 9999NDV OVC026 05/02 Q1024 RMK=
METAR RRA LSMM 162120Z AUTO VRB05KT 9999NDV SCT015 BKN018 OVC022
               05/02 Q1023 RMK=
METAR RRA LSMM 162150Z AUTO VRB05KT 9999NDV SCT014 OVC019 05/02
               Q1023 RMK=
METAR RRA LSMP 162120Z AUTO 03006KT 340V050 7000NDV OVC017 05/02
               Q1024 RMK=
METAR RRA LSMP 162150Z AUTO 02005KT 340V050 8000NDV OVC019 05/02
               Q1024 RMK=
METAR     LSMS 162120Z AUTO VRB03KT 9999 SCT023 05/02 Q1024=
METAR     LSMS 162150Z AUTO 00000KT 9999 NCD 05/02 Q1024=
Aktualisiert am Freitag, 16. November 2018, 23:13 Uhr

TAF Schweiz

TAF     LSZH 162025Z 1621/1803 01006KT 8000 FEW017 BKN020
             TX05/1714Z TN02/1723Z BECMG 1708/1710 06010KT PROB40
             1714/1721 CAVOK BECMG 1717/1719 02005KT PROB30
             1720/1803 BKN013=
TAF     LSGG 162025Z 1621/1803 02006KT 8000 SCT013 OVC016
             TX06/1715Z TN05/1706Z PROB30 TEMPO 1622/1706 3000 BR=
TAF AAB LFSB 161930Z 1619/1718 VRB03KT 9999 FEW020 BECMG 1621/1701
             3000 BR OVC008 TEMPO 1622/1709 0500 FG VV/// BECMG
             1709/1712 35005KT CAVOK BECMG 1714/1716 VRB03KT=
TAF     LFSB 161700Z 1618/1718 01005KT 9999 BKN020 TEMPO 1621/1709
             4000 BR BKN008 PROB40 TEMPO 1622/1709 0800 FG VV///=
TAF AAB LSGS 162005Z 1620/1624 CNL=
TAF     LSGS 161425Z 1615/1624 25005KT CAVOK=
TAF AAH LSZA 162050Z 1620/1624 CNL=
TAF     LSZA 161425Z 1615/1624 VRB03KT 9000 FEW030 OVC040=
TAF AAD LSZB 162050Z 1620/1624 CNL=
TAF     LSZB 161425Z 1615/1624 VRB03KT 9999 OVC010 PROB40 1619/1624
             4500 BR BKN009=
TAF AAD LSZG 162050Z 1620/1624 CNL=
TAF AAA LSZG 161700Z 1617/1624 07005KT 7000 OVC016 PROB40 TEMPO
             1620/1624 OVC012=
TAF     LSZG 161425Z 1615/1624 07005KT 6000 BR OVC010 PROB40 TEMPO
             1618/1624 OVC009=
TAF     LSZL 161725Z 1618/1703 VRB03KT 8000 BKN025 OVC035=
TAF AAE LSZR 162050Z 1620/1624 CNL=
TAF     LSZR 161425Z 1615/1624 VRB03KT 9999 FEW018 PROB40 1615/1619
             CAVOK BECMG 1619/1621 BKN012 PROB30 1622/1624 OVC008=
TAF AAC LSGC 162006Z 1620/1624 CNL=
TAF     LSGC 161425Z 1615/1624 07004KT CAVOK=
TAF AAG LSZC 162050Z 1620/1624 CNL=
TAF     LSZC 161425Z 1615/1624 22004KT 7000 FEW005 OVC015 TEMPO
             1615/1618 OVC012 BECMG 1618/1621 4000 BR BKN008=
TAF AAF LSZS 162050Z 1620/1624 CNL=
TAF     LSZS 161425Z 1615/1624 23007KT CAVOK TX07/1615Z PROB40
             1616/1624 4500 BR BKN010=
TAF AAA LSMA 162053Z 1620/1723 VRB03KT 9999 FEW014 OVC020 PROB30
             1623/1709 OVC013 PROB40 1714/1719 CAVOK PROB40
             1719/1723 BKN012=
TAF     LSMA 161625Z 1617/1723 VRB03KT 9999 OVC013 PROB40 1620/1709
             OVC009 BECMG 1708/1711 BKN016 PROB30 1714/1719 CAVOK
             PROB40 1719/1723 BKN012=
TAF     LSMD 161625Z 1617/1723 VRB03KT 9999 OVC020 PROB40 1620/1709
             OVC013 PROB40 1714/1719 CAVOK PROB40 1719/1723
             BKN013=
TAF     LSME 161625Z 1617/1723 04006KT 9999 OVC016 PROB40 1620/1709
             OVC011 PROB30 1714/1719 CAVOK PROB40 1719/1723
             BKN010=
TAF     LSMM 161625Z 1617/1723 05016KT 9999 BKN017 PROB40 1617/1708
             OVC010 BECMG 1618/1620 07005KT BECMG 1710/1713
             07015KT PROB40 1712/1720 CAVOK PROB30 TEMPO 1714/1720
             08018G28KT=
TAF     LSMP 161625Z 1617/1723 04005KT 5000 BR OVC010 PROB40 TEMPO
             1622/1706 2500=
Aktualisiert am Freitag, 16. November 2018, 23:03 Uhr